createdAt,value
2019-03-13T00:02:38.783Z,7.60
2019-03-13T00:11:10.905Z,7.30
2019-03-13T00:14:00.084Z,6.83
2019-03-13T00:16:43.430Z,7.07
2019-03-13T00:19:27.663Z,7.63
2019-03-13T00:25:30.306Z,7.17
2019-03-13T00:31:00.924Z,8.03
2019-03-13T00:33:45.015Z,7.53
2019-03-13T00:36:28.359Z,6.57
2019-03-13T00:39:17.581Z,6.50
2019-03-13T00:42:02.172Z,6.00
2019-03-13T00:47:26.439Z,6.10
2019-03-13T00:50:09.941Z,5.83
2019-03-13T00:55:40.874Z,5.10
2019-03-13T00:58:31.502Z,5.00
2019-03-13T01:01:35.395Z,4.80
2019-03-13T01:07:05.556Z,4.23
2019-03-13T01:13:05.639Z,3.30
2019-03-13T01:15:49.272Z,3.30
2019-03-13T01:21:32.848Z,3.43
2019-03-13T01:24:21.176Z,3.00
2019-03-13T01:27:09.998Z,2.83
2019-03-13T01:29:58.913Z,2.80
2019-03-13T01:36:08.301Z,2.53
2019-03-13T01:38:52.256Z,2.13
2019-03-13T01:47:09.072Z,2.40
2019-03-13T01:49:57.002Z,2.00
2019-03-13T01:55:42.927Z,2.30
2019-03-13T01:58:17.437Z,2.27
2019-03-13T02:00:48.554Z,2.10
2019-03-13T02:06:33.303Z,2.10
2019-03-13T02:09:15.030Z,2.57
2019-03-13T02:12:00.504Z,2.47
2019-03-13T02:14:45.151Z,2.53
2019-03-13T02:17:17.517Z,2.83
2019-03-13T02:20:00.835Z,2.10
2019-03-13T02:22:44.106Z,2.40
2019-03-13T02:25:27.820Z,2.67
2019-03-13T02:28:11.165Z,2.77
2019-03-13T02:30:53.830Z,2.53
2019-03-13T02:33:36.897Z,2.53
2019-03-13T02:36:20.380Z,2.73
2019-03-13T02:39:06.448Z,2.60
2019-03-13T02:41:54.592Z,2.57
2019-03-13T02:44:37.461Z,1.83
2019-03-13T02:50:17.070Z,2.03
2019-03-13T02:53:00.493Z,2.77
2019-03-13T02:55:43.852Z,2.20
2019-03-13T02:58:16.654Z,2.70
2019-03-13T03:01:28.590Z,2.73
2019-03-13T03:04:14.904Z,2.37
2019-03-13T03:07:02.207Z,2.77
2019-03-13T03:09:46.003Z,2.50
2019-03-13T03:12:29.542Z,2.60
2019-03-13T03:15:13.031Z,2.50
2019-03-13T03:17:57.018Z,2.50
2019-03-13T03:20:40.254Z,2.23
2019-03-13T03:23:12.638Z,2.83
2019-03-13T03:29:07.463Z,2.30
2019-03-13T03:31:39.697Z,2.50
2019-03-13T03:34:23.107Z,2.20
2019-03-13T03:39:52.556Z,2.33
2019-03-13T03:42:36.781Z,2.60
2019-03-13T03:45:20.241Z,3.23
2019-03-13T03:48:03.876Z,2.73
2019-03-13T03:50:47.020Z,3.03
2019-03-13T03:53:35.110Z,2.83
2019-03-13T03:56:19.238Z,2.27
2019-03-13T03:59:05.060Z,2.73
2019-03-13T04:01:52.931Z,2.60
2019-03-13T04:07:18.165Z,2.80
2019-03-13T04:12:46.063Z,2.17
2019-03-13T04:15:30.281Z,2.30
2019-03-13T04:18:14.173Z,2.30
2019-03-13T04:20:57.507Z,2.97
2019-03-13T04:26:36.566Z,2.67
2019-03-13T04:29:20.601Z,2.50
2019-03-13T04:37:39.841Z,3.13
2019-03-13T04:40:28.446Z,2.80
2019-03-13T04:43:12.543Z,2.60
2019-03-13T04:51:34.770Z,2.87
2019-03-13T04:54:18.306Z,2.90
2019-03-13T04:57:01.472Z,2.90
2019-03-13T04:59:49.442Z,3.07
2019-03-13T05:02:33.030Z,3.87
2019-03-13T05:05:17.489Z,3.43
2019-03-13T05:07:50.632Z,2.83
2019-03-13T05:13:34.044Z,2.77
2019-03-13T05:16:18.505Z,3.37
2019-03-13T05:19:03.768Z,2.53
2019-03-13T05:21:47.772Z,3.00
2019-03-13T05:27:28.115Z,3.20
2019-03-13T05:30:12.314Z,3.50
2019-03-13T05:32:43.790Z,2.67
2019-03-13T05:35:27.321Z,3.10
2019-03-13T05:37:59.652Z,2.90
2019-03-13T05:40:45.059Z,3.23
2019-03-13T05:43:16.487Z,2.90
2019-03-13T05:46:00.265Z,3.07
2019-03-13T05:48:49.558Z,3.30
2019-03-13T05:51:41.131Z,3.93
2019-03-13T05:54:24.245Z,3.17
2019-03-13T06:00:08.026Z,3.23
2019-03-13T06:02:53.917Z,3.47
2019-03-13T06:06:01.610Z,3.83
2019-03-13T06:12:15.936Z,3.83
2019-03-13T06:15:04.690Z,2.90
2019-03-13T06:17:50.456Z,3.87
2019-03-13T06:20:34.411Z,3.50
2019-03-13T06:23:18.088Z,3.10
2019-03-13T06:26:06.567Z,3.40
2019-03-13T06:28:54.238Z,3.23
2019-03-13T06:31:27.534Z,3.30
2019-03-13T06:37:26.598Z,3.63
2019-03-13T06:40:10.375Z,3.43
2019-03-13T06:42:57.507Z,3.63
2019-03-13T06:45:40.911Z,3.57
2019-03-13T06:48:28.244Z,3.33
2019-03-13T06:51:14.760Z,3.60
2019-03-13T06:56:45.516Z,2.60
2019-03-13T06:59:33.397Z,3.30
2019-03-13T07:14:26.046Z,3.00
2019-03-13T07:17:17.302Z,2.87
2019-03-13T07:23:03.737Z,3.63
2019-03-13T07:25:57.584Z,3.13
2019-03-13T07:29:18.707Z,2.87
2019-03-13T07:32:08.761Z,3.30
2019-03-13T07:41:27.592Z,2.80
2019-03-13T07:50:22.688Z,2.97
2019-03-13T07:53:28.406Z,3.43
2019-03-13T07:59:19.933Z,3.07
2019-03-13T08:02:18.612Z,2.70
2019-03-13T08:09:25.486Z,2.70
2019-03-13T08:11:44.259Z,3.03
2019-03-13T08:14:47.347Z,2.97
2019-03-13T08:21:01.636Z,2.93
2019-03-13T08:23:49.743Z,2.63
2019-03-13T08:30:29.652Z,3.17
2019-03-13T08:36:27.746Z,2.57
2019-03-13T08:42:03.449Z,2.87
2019-03-13T08:45:09.537Z,3.17
2019-03-13T08:48:03.466Z,2.83
2019-03-13T08:50:55.387Z,2.67
2019-03-13T08:56:53.074Z,2.27
2019-03-13T09:00:14.415Z,3.03
2019-03-13T09:06:22.506Z,3.17
2019-03-13T09:09:06.012Z,2.60
2019-03-13T09:11:54.907Z,2.77
2019-03-13T09:15:01.363Z,3.30
2019-03-13T09:18:08.236Z,3.40
2019-03-13T09:24:10.362Z,3.07
2019-03-13T09:27:17.536Z,3.37
2019-03-13T09:30:29.509Z,4.43
2019-03-13T09:33:38.274Z,3.67
2019-03-13T09:39:12.202Z,3.33
2019-03-13T09:45:07.033Z,2.70
2019-03-13T09:47:59.781Z,3.10
2019-03-13T09:51:03.433Z,3.43
2019-03-13T09:53:48.959Z,3.27
2019-03-13T10:05:57.692Z,2.40
2019-03-13T10:11:49.395Z,3.10
2019-03-13T10:14:53.253Z,3.47
2019-03-13T10:17:41.750Z,3.27
2019-03-13T10:20:48.453Z,3.37
2019-03-13T10:23:49.978Z,3.50
2019-03-13T10:26:50.767Z,3.10
2019-03-13T10:29:54.214Z,3.70
2019-03-13T10:38:16.340Z,2.90
2019-03-13T10:47:16.189Z,2.80
2019-03-13T10:50:03.161Z,2.37
2019-03-13T10:53:14.496Z,3.33
2019-03-13T11:01:59.921Z,3.10
2019-03-13T11:08:02.255Z,2.57
2019-03-13T11:10:58.533Z,2.73
2019-03-13T11:14:14.848Z,2.63
2019-03-13T11:17:12.823Z,3.10
2019-03-13T11:20:03.342Z,3.13
2019-03-13T11:23:07.842Z,2.70
2019-03-13T11:29:08.584Z,2.80
2019-03-13T11:32:12.625Z,1.90
2019-03-13T11:35:19.962Z,2.53
2019-03-13T11:38:22.637Z,2.63
2019-03-13T11:49:57.717Z,2.50
2019-03-13T11:55:45.292Z,2.87
2019-03-13T11:58:47.164Z,2.90
2019-03-13T12:04:34.601Z,3.20
2019-03-13T12:07:37.927Z,3.40
2019-03-13T12:10:26.700Z,3.20
2019-03-13T12:16:23.072Z,3.33
2019-03-13T12:19:13.580Z,4.37
2019-03-13T12:25:15.547Z,3.00
2019-03-13T12:33:59.677Z,3.10
2019-03-13T12:37:06.580Z,2.80
2019-03-13T12:48:58.642Z,3.53
2019-03-13T12:54:29.833Z,3.60
2019-03-13T12:57:32.048Z,3.33
2019-03-13T13:09:41.179Z,4.20
2019-03-13T13:12:25.955Z,3.53
2019-03-13T13:18:35.003Z,3.40
2019-03-13T13:24:07.703Z,3.03
2019-03-13T13:26:51.174Z,2.87
2019-03-13T13:29:36.469Z,3.00
2019-03-13T13:32:22.837Z,3.20
2019-03-13T13:37:53.811Z,2.97
2019-03-13T13:40:40.939Z,3.50
2019-03-13T13:43:30.774Z,2.33
2019-03-13T13:49:12.835Z,3.20
2019-03-13T13:54:45.866Z,3.80
2019-03-13T14:00:16.797Z,4.00
2019-03-13T14:11:43.116Z,4.27
2019-03-13T14:14:26.455Z,4.23
2019-03-13T14:20:13.893Z,4.30
2019-03-13T14:23:01.568Z,4.27
2019-03-13T14:25:45.499Z,3.60
2019-03-13T14:28:32.414Z,3.67
2019-03-13T14:34:05.973Z,4.13
2019-03-13T14:36:38.244Z,4.10
2019-03-13T14:42:15.814Z,3.40
2019-03-13T14:44:59.968Z,3.57
2019-03-13T14:47:37.735Z,3.77
2019-03-13T14:50:21.055Z,3.33
2019-03-13T14:55:56.780Z,4.37
2019-03-13T14:58:47.617Z,4.73
2019-03-13T15:04:38.335Z,7.30
2019-03-13T15:10:09.698Z,7.40
2019-03-13T15:15:29.272Z,6.83
2019-03-13T15:17:59.929Z,4.37
2019-03-13T15:20:47.414Z,8.10
2019-03-13T16:10:27.405Z,2.27
2019-03-13T16:13:19.208Z,1.90
2019-03-13T16:33:49.971Z,1.73
2019-03-13T16:36:34.345Z,2.10
2019-03-13T16:39:20.004Z,1.83
2019-03-13T16:42:02.336Z,1.83
2019-03-13T16:47:50.462Z,2.30
2019-03-13T16:50:34.683Z,2.40
2019-03-13T16:56:04.833Z,2.20
2019-03-13T16:58:50.600Z,2.23
2019-03-13T17:01:40.031Z,2.20
2019-03-13T17:04:24.819Z,2.97
2019-03-13T17:07:10.985Z,2.87
2019-03-13T17:09:55.484Z,3.13
2019-03-13T17:12:31.463Z,3.63
2019-03-13T17:15:04.394Z,3.10
2019-03-13T17:17:57.846Z,2.90
2019-03-13T17:20:50.789Z,2.83
2019-03-13T17:23:34.039Z,3.10
2019-03-13T17:26:17.421Z,3.80
2019-03-13T17:29:12.350Z,3.60
2019-03-13T17:32:16.810Z,3.93
2019-03-13T17:37:52.919Z,4.17
2019-03-13T17:40:37.679Z,4.50
2019-03-13T17:43:23.138Z,4.37
2019-03-13T17:46:07.390Z,3.90
2019-03-13T17:48:54.092Z,6.07
2019-03-13T17:51:38.331Z,4.10
2019-03-13T17:57:18.052Z,3.33
2019-03-13T18:02:48.719Z,4.77
2019-03-13T18:05:36.851Z,5.17
2019-03-13T18:08:19.354Z,4.07
2019-03-13T18:11:02.344Z,3.63
2019-03-13T18:13:45.835Z,4.10
2019-03-13T18:19:45.562Z,3.43
2019-03-13T18:34:23.768Z,3.80
2019-03-13T18:37:16.374Z,4.27
2019-03-13T18:40:21.422Z,4.70
2019-03-13T18:43:07.765Z,6.30
2019-03-13T18:45:52.162Z,10.90
2019-03-13T18:48:39.723Z,10.33
2019-03-13T18:54:19.909Z,9.90
2019-03-13T18:57:03.886Z,12.17
2019-03-13T18:59:47.644Z,15.83
2019-03-13T19:02:34.850Z,11.07
2019-03-13T19:05:18.518Z,8.10
2019-03-13T19:08:02.299Z,4.77
2019-03-13T19:10:51.583Z,5.60
2019-03-13T19:13:41.041Z,5.50
2019-03-13T19:16:30.687Z,5.50
2019-03-13T19:19:14.753Z,5.10
2019-03-13T19:24:59.523Z,5.17
2019-03-13T19:27:43.396Z,4.50
2019-03-13T19:30:31.638Z,4.40
2019-03-13T19:33:25.415Z,5.00
2019-03-13T19:36:14.911Z,5.50
2019-03-13T19:38:58.868Z,5.20
2019-03-13T19:41:42.122Z,4.70
2019-03-13T19:44:27.435Z,4.57
2019-03-13T19:47:19.604Z,5.00
2019-03-13T19:49:53.968Z,5.03
2019-03-13T19:52:40.780Z,4.27
2019-03-13T19:55:25.329Z,3.50
2019-03-13T19:58:09.994Z,3.60
2019-03-13T20:00:59.067Z,3.57
2019-03-13T20:03:54.588Z,3.43
2019-03-13T20:06:41.422Z,3.27
2019-03-13T20:09:14.410Z,3.17
2019-03-13T20:12:00.181Z,3.10
2019-03-13T20:14:44.357Z,3.07
2019-03-13T20:17:34.718Z,3.13
2019-03-13T20:20:19.997Z,2.80
2019-03-13T20:22:53.227Z,3.40
2019-03-13T20:25:38.276Z,2.80
2019-03-13T20:28:22.116Z,3.10
2019-03-13T20:31:06.456Z,3.50
2019-03-13T20:33:54.400Z,3.20
2019-03-13T20:39:23.208Z,3.47
2019-03-13T20:42:13.750Z,2.77
2019-03-13T20:44:57.875Z,3.33
2019-03-13T20:47:41.197Z,4.00
2019-03-13T20:50:14.090Z,3.70
2019-03-13T20:58:24.807Z,4.13
2019-03-13T21:00:55.902Z,3.70
2019-03-13T21:03:42.074Z,4.00
2019-03-13T21:06:32.971Z,4.40
2019-03-13T21:09:19.033Z,4.60
2019-03-13T21:12:07.303Z,4.43
2019-03-13T21:16:01.226Z,4.90
2019-03-13T21:18:06.248Z,4.50
2019-03-13T21:20:50.745Z,4.37
2019-03-13T21:23:37.788Z,4.47
2019-03-13T21:26:25.660Z,4.50
2019-03-13T21:29:09.817Z,4.23
2019-03-13T21:31:53.668Z,3.80
2019-03-13T21:34:38.479Z,3.13
2019-03-13T21:37:22.717Z,4.40
2019-03-13T21:40:08.308Z,3.83
2019-03-13T21:42:55.876Z,3.13
2019-03-13T21:45:42.975Z,3.67
2019-03-13T21:48:26.759Z,3.33
2019-03-13T21:51:11.919Z,3.67
2019-03-13T21:53:58.984Z,3.23
2019-03-13T21:56:45.629Z,3.50
2019-03-13T21:59:32.032Z,3.73
2019-03-13T22:02:32.352Z,3.87
2019-03-13T22:05:25.140Z,3.57
2019-03-13T22:07:46.990Z,3.47
2019-03-13T22:10:31.193Z,3.97
2019-03-13T22:16:17.868Z,2.93
2019-03-13T22:19:08.219Z,3.20
2019-03-13T22:21:53.229Z,3.07
2019-03-13T22:24:41.246Z,3.47
2019-03-13T22:27:26.118Z,3.57
2019-03-13T22:30:11.340Z,3.10
2019-03-13T22:32:56.561Z,3.50
2019-03-13T22:35:44.795Z,2.70
2019-03-13T22:38:28.697Z,3.50
2019-03-13T22:41:16.005Z,2.77
2019-03-13T22:44:07.356Z,2.87
2019-03-13T22:46:52.812Z,2.60
2019-03-13T22:49:41.074Z,2.37
2019-03-13T22:55:59.886Z,2.43
2019-03-13T22:58:41.121Z,2.60
2019-03-13T23:01:29.714Z,2.60
2019-03-13T23:04:15.935Z,2.43
2019-03-13T23:07:33.577Z,2.10
2019-03-13T23:10:17.272Z,2.37
2019-03-13T23:13:07.242Z,3.07
2019-03-13T23:19:25.798Z,2.43
2019-03-13T23:25:15.141Z,2.30
2019-03-13T23:28:03.901Z,4.13
2019-03-13T23:30:48.190Z,2.60
2019-03-13T23:33:36.483Z,3.03
2019-03-13T23:39:28.922Z,2.40
2019-03-13T23:42:13.050Z,2.60
2019-03-13T23:44:58.775Z,2.43
2019-03-13T23:47:43.830Z,2.43
2019-03-13T23:50:27.754Z,4.10
2019-03-13T23:53:11.754Z,4.30
2019-03-13T23:59:02.654Z,4.73
